Time;durP1;ratioP1;P1;durP2;ratioP2;P2;SDS_P1;SDS_P2;PMS_P1;PMS_P2;Temp;Humidity;BMP_temperature;BMP_pressure;BME280_temperature;BME280_humidity;BME280_pressure;Samples;Min_cycle;Max_cycle;Signal;HPM_P1;HPM_P2
2023/03/01 00:01:29;;;;;;;14.32;8.63;;;-0.80;99.90;;;;;;5034767;28;20434;-69
2023/03/01 00:03:55;;;;;;;17.38;8.85;;;-1.00;99.90;;;;;;5018712;28;20061;-69
2023/03/01 00:06:21;;;;;;;15.25;8.82;;;-1.10;99.90;;;;;;5019633;28;20474;-69
2023/03/01 00:08:47;;;;;;;16.25;7.45;;;-1.30;99.90;;;;;;5037732;28;20110;-69
2023/03/01 00:11:18;;;;;;;15.77;7.88;;;-1.10;99.90;;;;;;5017100;28;20121;-69
2023/03/01 00:13:46;;;;;;;16.02;8.10;;;-1.00;99.90;;;;;;5024053;28;20195;-70
2023/03/01 00:16:14;;;;;;;11.82;7.40;;;-1.00;99.90;;;;;;5057673;28;20055;-70
2023/03/01 00:18:40;;;;;;;16.67;8.95;;;-1.00;99.90;;;;;;5033932;28;20881;-70
2023/03/01 00:21:06;;;;;;;17.02;8.30;;;-0.90;99.90;;;;;;5013148;28;20083;-70
2023/03/01 00:23:33;;;;;;;18.50;8.20;;;-1.10;99.90;;;;;;5030994;28;20549;-69
2023/03/01 00:25:58;;;;;;;16.52;8.07;;;-1.60;99.90;;;;;;5040962;28;20045;-69
2023/03/01 00:28:24;;;;;;;15.65;7.68;;;-1.60;99.90;;;;;;5026665;28;20060;-69
2023/03/01 00:30:50;;;;;;;13.60;7.40;;;-1.60;99.90;;;;;;5016936;28;20053;-69
2023/03/01 00:33:16;;;;;;;18.30;8.73;;;-1.40;99.90;;;;;;5014993;28;20351;-69
2023/03/01 00:35:41;;;;;;;14.90;7.65;;;-1.20;99.90;;;;;;5019551;28;20059;-69
2023/03/01 00:38:07;;;;;;;16.60;8.40;;;-1.20;99.90;;;;;;5019589;28;20071;-69
2023/03/01 00:40:34;;;;;;;15.65;7.47;;;-1.40;99.90;;;;;;5024151;28;20045;-70
2023/03/01 00:43:00;;;;;;;15.10;7.78;;;-1.30;99.90;;;;;;5027077;28;20099;-70
2023/03/01 00:45:26;;;;;;;12.65;7.55;;;-1.40;99.90;;;;;;5037383;28;20052;-69
2023/03/01 00:47:52;;;;;;;16.70;7.90;;;-1.30;99.90;;;;;;5043581;28;20068;-69
2023/03/01 00:50:19;;;;;;;15.20;7.68;;;-1.20;99.90;;;;;;5038445;28;20041;-69
2023/03/01 00:52:44;;;;;;;15.30;8.00;;;-1.10;99.90;;;;;;5036910;28;20124;-69
2023/03/01 00:55:10;;;;;;;15.27;6.95;;;-1.20;99.90;;;;;;5023936;28;20160;-69
2023/03/01 00:57:36;;;;;;;15.02;6.53;;;-1.20;99.90;;;;;;5000299;28;20045;-70
2023/03/01 01:00:04;;;;;;;15.02;8.25;;;-1.20;99.90;;;;;;5022693;28;20040;-69
2023/03/01 01:02:29;;;;;;;16.70;8.55;;;-1.20;99.90;;;;;;5043276;28;20129;-70
2023/03/01 01:04:55;;;;;;;13.20;7.72;;;-1.20;99.90;;;;;;5035578;28;20127;-69
2023/03/01 01:07:21;;;;;;;12.80;7.07;;;-1.20;99.90;;;;;;5022068;28;20111;-69
2023/03/01 01:09:47;;;;;;;15.02;7.88;;;-1.30;99.90;;;;;;5041957;28;20053;-70
2023/03/01 01:12:12;;;;;;;12.73;7.45;;;-1.30;99.90;;;;;;5042029;28;20041;-69
2023/03/01 01:14:38;;;;;;;15.43;7.88;;;-1.20;99.90;;;;;;5052375;28;20126;-70
2023/03/01 01:17:04;;;;;;;15.27;7.85;;;-1.30;99.90;;;;;;5019053;28;20484;-70
2023/03/01 01:19:30;;;;;;;13.57;6.95;;;-1.30;99.90;;;;;;5033299;28;20033;-69
2023/03/01 01:21:55;;;;;;;15.05;7.72;;;-1.40;99.90;;;;;;5019299;28;20053;-69
2023/03/01 01:24:21;;;;;;;14.18;7.72;;;-1.30;99.90;;;;;;5045976;28;20040;-69
2023/03/01 01:26:47;;;;;;;13.73;6.82;;;-1.40;99.90;;;;;;5038659;28;20049;-69
2023/03/01 01:29:13;;;;;;;15.00;7.05;;;-1.40;99.90;;;;;;5036508;28;20069;-69
2023/03/01 01:31:39;;;;;;;16.23;7.97;;;-1.40;99.90;;;;;;5021602;28;20048;-69
2023/03/01 01:34:07;;;;;;;15.90;7.53;;;-1.70;99.90;;;;;;5021934;28;20103;-69
2023/03/01 01:36:33;;;;;;;15.38;7.53;;;-1.60;99.90;;;;;;5022020;28;20060;-69
2023/03/01 01:38:59;;;;;;;14.18;6.53;;;-1.40;99.90;;;;;;5037933;28;20433;-69
2023/03/01 01:41:25;;;;;;;12.40;7.68;;;-1.40;99.90;;;;;;5022647;28;20063;-69
2023/03/01 01:44:23;;;;;;;11.70;6.78;;;-1.60;99.90;;;;;;5051777;28;20427;-69
2023/03/01 01:47:00;;;;;;;14.30;7.35;;;-1.70;99.90;;;;;;5030802;28;20056;-69
2023/03/01 01:49:36;;;;;;;14.05;7.30;;;-1.80;99.90;;;;;;5050292;28;20040;-69
2023/03/01 01:52:25;;;;;;;12.77;6.82;;;-1.60;99.90;;;;;;5037436;28;20037;-69
2023/03/01 01:55:21;;;;;;;12.80;6.55;;;-1.60;99.90;;;;;;5053564;28;20129;-69
2023/03/01 01:57:53;;;;;;;14.10;7.95;;;-1.60;99.90;;;;;;5022162;28;20045;-69
2023/03/01 02:00:21;;;;;;;13.30;6.60;;;-1.70;99.90;;;;;;5016403;28;20041;-69
2023/03/01 02:02:47;;;;;;;13.77;7.72;;;-1.90;99.90;;;;;;5051123;28;20033;-69
2023/03/01 02:06:03;;;;;;;11.68;6.88;;;-1.90;99.90;;;;;;5023300;28;20045;-69
2023/03/01 02:08:31;;;;;;;13.20;6.90;;;-1.80;99.90;;;;;;5018975;28;20136;-70
2023/03/01 02:10:57;;;;;;;15.43;7.53;;;-1.80;99.90;;;;;;5067603;28;20041;-69
2023/03/01 02:13:23;;;;;;;14.60;7.10;;;-1.70;99.90;;;;;;5030319;28;20060;-69
2023/03/01 02:15:49;;;;;;;13.98;8.13;;;-1.80;99.90;;;;;;5033733;28;20064;-69
2023/03/01 02:18:18;;;;;;;11.50;6.93;;;-1.90;99.90;;;;;;5042176;28;20041;-69
2023/03/01 02:21:01;;;;;;;14.65;7.05;;;-1.80;99.90;;;;;;5031867;28;20598;-69
2023/03/01 02:23:28;;;;;;;12.90;7.00;;;-1.70;99.90;;;;;;5072075;28;20041;-69
2023/03/01 02:26:11;;;;;;;12.63;7.40;;;-1.80;99.90;;;;;;5050878;28;20049;-69
2023/03/01 02:28:37;;;;;;;11.82;6.85;;;-2.00;99.90;;;;;;5033914;28;20499;-69
2023/03/01 02:33:51;;;;;;;12.35;7.18;;;-2.40;99.90;;;;;;5040171;28;20049;-69
2023/03/01 02:36:28;;;;;;;12.48;6.80;;;-2.30;99.90;;;;;;5032048;28;20051;-69
2023/03/01 02:38:57;;;;;;;12.82;7.85;;;-2.00;99.90;;;;;;5034927;28;20059;-69
2023/03/01 02:41:22;;;;;;;;;;;-2.10;99.90;;;;;;5038235;28;20041;-69
2023/03/01 02:43:48;;;;;;;12.82;6.47;;;-2.00;99.90;;;;;;5051640;28;19908;-69
2023/03/01 02:46:19;;;;;;;14.10;6.60;;;-2.00;99.90;;;;;;5038024;28;20045;-69
2023/03/01 02:48:49;;;;;;;11.43;6.43;;;-2.30;99.90;;;;;;5019840;28;20045;-69
2023/03/01 02:51:27;;;;;;;14.35;6.43;;;-2.50;99.90;;;;;;5039626;28;20049;-69
2023/03/01 02:54:02;;;;;;;11.77;6.40;;;-2.40;99.90;;;;;;5055598;28;20037;-69
2023/03/01 02:56:28;;;;;;;13.43;7.38;;;-2.20;99.90;;;;;;5039218;28;20048;-69
2023/03/01 02:58:54;;;;;;;12.65;6.75;;;-2.30;99.90;;;;;;5039366;28;20416;-69
2023/03/01 03:01:20;;;;;;;11.27;6.45;;;-2.50;99.90;;;;;;5040496;28;20110;-69
2023/03/01 03:03:45;;;;;;;13.55;6.15;;;-2.40;99.90;;;;;;5036046;28;20049;-68
2023/03/01 03:06:12;;;;;;;11.60;6.40;;;-2.30;99.90;;;;;;5039019;28;20041;-69
2023/03/01 03:08:37;;;;;;;11.40;6.20;;;-2.30;99.90;;;;;;5037819;28;20424;-69
2023/03/01 03:11:03;;;;;;;12.07;6.82;;;-2.30;99.90;;;;;;5036698;28;20037;-69
2023/03/01 03:13:29;;;;;;;15.82;6.72;;;-2.30;99.90;;;;;;5029822;28;20494;-69
2023/03/01 03:15:58;;;;;;;10.40;6.40;;;-2.30;99.90;;;;;;5037421;28;20057;-69
2023/03/01 03:18:25;;;;;;;13.88;6.78;;;-2.50;99.90;;;;;;5037655;28;20079;-69
2023/03/01 03:20:52;;;;;;;11.40;5.75;;;-2.50;99.90;;;;;;5033604;28;20041;-68
2023/03/01 03:23:21;;;;;;;11.35;6.70;;;-2.50;99.90;;;;;;5042707;28;20094;-69
2023/03/01 03:25:50;;;;;;;16.80;6.63;;;-2.40;99.90;;;;;;5030243;28;20068;-69
2023/03/01 03:28:16;;;;;;;11.68;7.07;;;-2.50;99.90;;;;;;5036914;28;20144;-69
2023/03/01 03:30:42;;;;;;;11.88;6.57;;;-2.50;99.90;;;;;;5049645;28;20131;-69
2023/03/01 03:33:08;;;;;;;14.40;7.60;;;-2.50;99.90;;;;;;5020820;28;20057;-69
2023/03/01 03:35:39;;;;;;;21.85;8.40;;;-2.60;99.90;;;;;;5007474;28;20059;-69
2023/03/01 03:38:09;;;;;;;16.92;7.72;;;-2.80;99.90;;;;;;5026808;28;20056;-69
2023/03/01 03:40:36;;;;;;;13.77;6.78;;;-2.70;99.90;;;;;;5013807;28;20064;-69
2023/03/01 03:43:03;;;;;;;13.88;7.13;;;-2.80;99.90;;;;;;5030680;28;20045;-68
2023/03/01 03:45:29;;;;;;;11.40;6.85;;;-2.80;99.90;;;;;;5014591;28;20053;-68
2023/03/01 03:47:56;;;;;;;16.55;6.95;;;-2.90;99.90;;;;;;5016484;28;20061;-69
2023/03/01 03:50:21;;;;;;;12.32;6.50;;;-2.80;99.90;;;;;;5024618;28;20053;-69
2023/03/01 03:52:47;;;;;;;11.68;6.68;;;-2.80;99.90;;;;;;5028850;28;20049;-68
2023/03/01 03:55:13;;;;;;;11.68;6.65;;;-2.90;99.90;;;;;;5025950;28;20056;-68
2023/03/01 03:57:42;;;;;;;12.57;7.32;;;-2.90;99.90;;;;;;5042743;28;20144;-69
2023/03/01 04:00:12;;;;;;;11.95;6.03;;;-2.70;99.90;;;;;;5033411;28;20060;-69
2023/03/01 04:02:42;;;;;;;13.05;6.50;;;-2.60;99.90;;;;;;5030316;28;20152;-69
2023/03/01 04:05:09;;;;;;;14.27;7.18;;;-2.80;99.90;;;;;;5029662;28;20473;-69
2023/03/01 04:07:35;;;;;;;10.95;5.72;;;-2.80;99.90;;;;;;5037877;28;20050;-69
2023/03/01 04:10:03;;;;;;;13.48;7.00;;;-2.90;99.90;;;;;;5043224;28;20473;-69
2023/03/01 04:12:29;;;;;;;12.80;6.53;;;-2.80;99.90;;;;;;5032000;28;20051;-69
2023/03/01 04:14:55;;;;;;;11.70;6.47;;;-3.00;99.90;;;;;;5012286;28;20061;-69
2023/03/01 04:17:20;;;;;;;14.57;7.10;;;-3.00;99.90;;;;;;5019699;28;20076;-69
2023/03/01 04:19:48;;;;;;;13.40;6.75;;;-2.80;99.90;;;;;;5024041;28;20052;-69
2023/03/01 04:22:18;;;;;;;14.25;6.35;;;-2.90;99.90;;;;;;5043799;28;20041;-69
2023/03/01 04:24:44;;;;;;;13.48;6.88;;;-2.90;99.90;;;;;;5041442;28;20520;-69
2023/03/01 04:27:10;;;;;;;12.05;6.43;;;-3.00;99.90;;;;;;5025682;28;20151;-69
2023/03/01 04:29:36;;;;;;;11.40;6.90;;;-3.10;99.90;;;;;;5022589;28;20072;-69
2023/03/01 04:32:02;;;;;;;13.95;6.65;;;-3.00;99.90;;;;;;5035853;28;20053;-69
2023/03/01 04:34:29;;;;;;;11.25;6.30;;;-3.10;99.90;;;;;;4996597;28;20104;-69
2023/03/01 04:36:55;;;;;;;13.90;6.63;;;-3.20;99.90;;;;;;5030491;28;20120;-69
2023/03/01 04:39:21;;;;;;;17.67;6.97;;;-3.00;99.90;;;;;;5023637;28;20178;-69
2023/03/01 04:41:47;;;;;;;13.88;6.78;;;-3.10;99.90;;;;;;5019732;28;20056;-69
2023/03/01 04:44:13;;;;;;;14.57;6.47;;;-3.10;99.90;;;;;;5025859;28;20056;-69
2023/03/01 04:46:38;;;;;;;14.13;7.43;;;-2.90;99.90;;;;;;5036511;28;20127;-69
2023/03/01 04:49:05;;;;;;;16.25;7.90;;;-3.30;99.90;;;;;;5046969;28;20049;-69
2023/03/01 04:51:34;;;;;;;15.15;7.53;;;-3.40;99.90;;;;;;5075626;28;20353;-69
2023/03/01 04:54:00;;;;;;;13.90;7.05;;;-3.30;99.90;;;;;;5021525;28;20118;-69
2023/03/01 04:56:26;;;;;;;12.85;7.03;;;-3.20;99.90;;;;;;5042603;28;20049;-69
2023/03/01 04:58:53;;;;;;;15.82;7.50;;;-3.00;99.90;;;;;;5026652;28;20216;-69
2023/03/01 05:01:19;;;;;;;11.63;6.75;;;-3.00;99.90;;;;;;5041198;28;20053;-68
2023/03/01 05:03:49;;;;;;;13.80;6.85;;;-3.00;99.90;;;;;;5045317;28;20060;-68
2023/03/01 05:06:16;;;;;;;14.35;7.40;;;-3.00;99.90;;;;;;5062017;28;20048;-69
2023/03/01 05:08:42;;;;;;;15.02;7.07;;;-3.00;99.90;;;;;;5046664;28;20084;-71
2023/03/01 05:11:08;;;;;;;12.45;6.95;;;-3.10;99.90;;;;;;5037143;28;20434;-70
2023/03/01 05:13:35;;;;;;;13.90;7.18;;;-3.20;99.90;;;;;;5028095;28;20053;-70
2023/03/01 05:16:01;;;;;;;13.55;7.03;;;-3.20;99.90;;;;;;5019115;28;20148;-70
2023/03/01 05:18:30;;;;;;;15.55;7.55;;;-3.10;99.90;;;;;;5026402;28;20045;-70
2023/03/01 05:20:58;;;;;;;13.32;6.88;;;-3.00;99.90;;;;;;5017399;28;20378;-70
2023/03/01 05:23:24;;;;;;;12.98;6.57;;;-3.00;99.90;;;;;;5047426;28;20041;-70
2023/03/01 05:25:52;;;;;;;14.18;7.05;;;-3.20;99.90;;;;;;5035212;28;20054;-70
2023/03/01 05:28:19;;;;;;;15.27;7.20;;;-3.30;99.90;;;;;;5030861;28;20460;-70
2023/03/01 05:30:45;;;;;;;14.73;7.97;;;-3.20;99.90;;;;;;5021109;28;20276;-70
2023/03/01 05:33:14;;;;;;;12.55;6.60;;;-3.40;99.90;;;;;;5033485;28;20098;-70
2023/03/01 05:35:43;;;;;;;12.70;7.30;;;-3.40;99.90;;;;;;5019285;28;20120;-70
2023/03/01 05:38:12;;;;;;;13.80;7.40;;;-3.30;99.90;;;;;;5005898;28;20045;-70
2023/03/01 05:40:39;;;;;;;13.40;7.35;;;-3.50;99.90;;;;;;5002720;28;20045;-71
2023/03/01 05:43:05;;;;;;;15.93;7.20;;;-3.30;99.90;;;;;;5036770;28;20046;-71
2023/03/01 05:45:32;;;;;;;13.73;7.45;;;-3.30;99.90;;;;;;5013998;28;20049;-70
2023/03/01 05:47:58;;;;;;;15.80;7.35;;;-3.30;99.90;;;;;;5027513;28;20040;-70
2023/03/01 05:50:25;;;;;;;15.52;8.05;;;-3.40;99.90;;;;;;5029101;28;20645;-70
2023/03/01 05:52:56;;;;;;;13.32;7.68;;;-3.30;99.90;;;;;;5018690;28;20482;-71
2023/03/01 05:55:22;;;;;;;17.48;8.27;;;-3.20;99.90;;;;;;5018984;28;20053;-70
2023/03/01 05:57:47;;;;;;;14.18;7.45;;;-3.30;99.90;;;;;;5034872;28;20048;-71
2023/03/01 06:00:14;;;;;;;15.88;7.28;;;-3.40;99.90;;;;;;5042402;28;20156;-70
2023/03/01 06:02:40;;;;;;;13.05;7.03;;;-3.20;99.90;;;;;;5022148;28;20045;-71
2023/03/01 06:05:07;;;;;;;14.13;7.75;;;-3.30;99.90;;;;;;5021229;28;20055;-71
2023/03/01 06:07:33;;;;;;;16.02;7.65;;;-3.50;99.90;;;;;;5033826;28;20068;-70
2023/03/01 06:10:00;;;;;;;13.75;7.13;;;-3.60;99.90;;;;;;5032090;28;20381;-71
2023/03/01 06:12:26;;;;;;;14.38;6.70;;;-3.30;99.90;;;;;;5038113;28;20106;-71
2023/03/01 06:14:51;;;;;;;17.67;8.48;;;-3.50;99.90;;;;;;5020652;28;20502;-71
2023/03/01 06:17:17;;;;;;;16.48;8.65;;;-3.60;99.90;;;;;;5038654;28;20661;-70
2023/03/01 06:19:43;;;;;;;24.77;13.23;;;-3.30;99.90;;;;;;5028065;28;20052;-70
2023/03/01 06:22:09;;;;;;;23.30;14.30;;;-3.40;99.90;;;;;;5046784;28;20080;-70
2023/03/01 06:24:34;;;;;;;18.65;10.75;;;-3.40;99.90;;;;;;5036686;28;20053;-70
2023/03/01 06:27:00;;;;;;;19.35;10.07;;;-3.20;99.90;;;;;;5032917;28;20170;-71
2023/03/01 06:29:26;;;;;;;18.17;9.07;;;-3.30;99.90;;;;;;5046931;28;20465;-70
2023/03/01 06:31:51;;;;;;;14.45;8.00;;;-3.40;99.90;;;;;;5024854;28;20524;-71
2023/03/01 06:34:17;;;;;;;18.27;9.32;;;-3.30;99.90;;;;;;5014463;28;20385;-70
2023/03/01 06:36:43;;;;;;;14.95;8.13;;;-3.10;99.90;;;;;;5027743;28;20041;-72
2023/03/01 06:39:09;;;;;;;14.57;8.60;;;-3.10;99.90;;;;;;5049420;28;20041;-70
2023/03/01 06:41:36;;;;;;;17.30;8.63;;;-3.00;99.90;;;;;;5028991;28;20116;-70
2023/03/01 06:44:02;;;;;;;23.58;9.30;;;-3.20;99.90;;;;;;5021490;28;20583;-71
2023/03/01 06:46:28;;;;;;;18.23;8.45;;;-3.30;99.90;;;;;;5000627;28;20552;-71
2023/03/01 06:48:53;;;;;;;20.63;8.73;;;-3.20;99.90;;;;;;5044351;28;20044;-70
2023/03/01 06:51:19;;;;;;;14.73;8.25;;;-3.00;99.90;;;;;;5023032;28;20120;-70
2023/03/01 06:53:46;;;;;;;31.73;10.25;;;-2.80;99.90;;;;;;5027288;28;20037;-70
2023/03/01 06:56:12;;;;;;;13.73;7.72;;;-3.20;99.90;;;;;;5040673;28;20125;-70
2023/03/01 06:58:37;;;;;;;16.27;9.25;;;-3.10;99.90;;;;;;5032773;28;20199;-70
2023/03/01 07:01:07;;;;;;;17.90;8.68;;;-3.00;99.90;;;;;;5036782;28;20056;-71
2023/03/01 07:03:33;;;;;;;16.88;9.00;;;-3.00;99.90;;;;;;5015462;28;20044;-70
2023/03/01 07:05:59;;;;;;;15.45;9.38;;;-3.00;99.90;;;;;;5036818;28;20049;-72
2023/03/01 07:08:24;;;;;;;26.60;9.30;;;-2.90;99.90;;;;;;5025655;28;20056;-70
2023/03/01 07:10:57;;;;;;;24.35;10.20;;;-2.80;99.90;;;;;;5003941;28;20052;-71
2023/03/01 07:13:23;;;;;;;18.80;9.52;;;-2.90;99.90;;;;;;5052820;28;20127;-71
2023/03/01 07:15:49;;;;;;;18.85;9.63;;;-2.80;99.90;;;;;;5014431;28;20101;-70
2023/03/01 07:18:15;;;;;;;25.17;11.48;;;-2.80;99.90;;;;;;5026848;28;20057;-71
2023/03/01 07:20:40;;;;;;;31.25;10.27;;;-2.70;99.90;;;;;;5043109;28;20053;-69
2023/03/01 07:23:06;;;;;;;25.90;10.93;;;-2.70;99.90;;;;;;5019038;28;20158;-71
2023/03/01 07:25:32;;;;;;;22.50;10.23;;;-2.60;99.90;;;;;;5050153;28;20049;-69
2023/03/01 07:27:58;;;;;;;15.40;8.77;;;-2.80;99.90;;;;;;5038416;28;20064;-69
2023/03/01 07:30:25;;;;;;;19.05;8.48;;;-2.80;99.90;;;;;;5050978;28;20057;-71
2023/03/01 07:32:51;;;;;;;15.53;7.90;;;-2.90;99.90;;;;;;5025868;28;20450;-70
2023/03/01 07:35:17;;;;;;;15.90;8.20;;;-2.80;99.90;;;;;;5041550;28;20048;-69
2023/03/01 07:37:43;;;;;;;17.45;8.80;;;-2.70;99.90;;;;;;5024586;28;20518;-69
2023/03/01 07:40:09;;;;;;;18.48;8.75;;;-2.70;99.90;;;;;;5018186;28;20037;-69
2023/03/01 07:42:35;;;;;;;15.32;8.68;;;-2.60;99.90;;;;;;5039215;28;20045;-69
2023/03/01 07:45:01;;;;;;;14.68;8.10;;;-2.50;99.90;;;;;;5021558;28;20057;-69
2023/03/01 07:47:26;;;;;;;15.55;8.80;;;-2.30;99.90;;;;;;5067943;28;20369;-70
2023/03/01 07:49:52;;;;;;;19.65;8.85;;;-2.20;99.90;;;;;;5011835;28;20045;-69
2023/03/01 07:52:18;;;;;;;17.23;8.82;;;-2.10;99.90;;;;;;5019797;28;20049;-69
2023/03/01 07:54:44;;;;;;;14.90;8.45;;;-2.10;99.90;;;;;;5011431;28;20047;-71
2023/03/01 07:57:10;;;;;;;17.13;8.38;;;-1.90;99.90;;;;;;5022073;28;20041;-71
2023/03/01 07:59:36;;;;;;;17.25;8.32;;;-1.80;99.90;;;;;;5023494;28;20041;-71
2023/03/01 08:02:02;;;;;;;18.08;8.65;;;-1.80;99.90;;;;;;5029471;28;20523;-71
2023/03/01 08:04:27;;;;;;;16.42;8.70;;;-1.70;99.90;;;;;;5030994;28;20053;-71
2023/03/01 08:06:54;;;;;;;16.25;8.10;;;-1.50;99.90;;;;;;5028504;28;20495;-71
2023/03/01 08:09:20;;;;;;;14.73;8.77;;;-1.40;99.90;;;;;;5046085;28;20531;-71
2023/03/01 08:11:45;;;;;;;14.18;7.85;;;-1.30;99.90;;;;;;5036066;28;20103;-71
2023/03/01 08:14:11;;;;;;;19.25;9.23;;;-1.10;99.90;;;;;;5020207;28;20057;-72
2023/03/01 08:16:37;;;;;;;20.48;9.75;;;-1.00;99.90;;;;;;5035263;28;20102;-72
2023/03/01 08:19:07;;;;;;;19.45;9.15;;;-0.90;99.90;;;;;;5034501;28;20045;-72
2023/03/01 08:21:34;;;;;;;20.20;9.10;;;-0.80;99.90;;;;;;5030867;28;20119;-72
2023/03/01 08:24:03;;;;;;;21.40;9.00;;;-0.70;99.90;;;;;;5041247;28;20056;-72
2023/03/01 08:26:29;;;;;;;16.42;8.82;;;-0.70;99.90;;;;;;5032619;28;20041;-72
2023/03/01 08:28:55;;;;;;;20.67;10.13;;;-0.50;99.90;;;;;;5024089;28;20111;-72
2023/03/01 08:31:24;;;;;;;17.20;9.73;;;-0.50;99.90;;;;;;5035409;28;20455;-71
2023/03/01 08:33:55;;;;;;;19.20;9.65;;;-0.50;99.90;;;;;;5033285;28;20041;-71
2023/03/01 08:36:40;;;;;;;14.00;8.00;;;-0.40;99.90;;;;;;5041231;28;20049;-71
2023/03/01 08:39:06;;;;;;;16.70;8.30;;;-0.40;99.90;;;;;;5008852;28;20080;-71
2023/03/01 08:41:31;;;;;;;15.57;8.57;;;-0.20;99.90;;;;;;5039656;28;20111;-71
2023/03/01 08:44:00;;;;;;;19.95;8.48;;;-0.10;99.90;;;;;;5017050;28;20394;-72
2023/03/01 08:46:30;;;;;;;14.77;7.72;;;0.10;99.90;;;;;;5031154;28;20045;-72
2023/03/01 08:48:56;;;;;;;21.02;10.13;;;0.20;99.90;;;;;;5044777;28;20047;-72
2023/03/01 08:51:22;;;;;;;18.20;8.45;;;0.30;99.90;;;;;;5020762;28;20041;-72
2023/03/01 08:53:48;;;;;;;17.88;8.20;;;0.40;99.90;;;;;;5019330;28;20041;-72
2023/03/01 08:56:14;;;;;;;12.73;6.88;;;0.60;99.90;;;;;;5020318;28;20373;-72
2023/03/01 08:58:42;;;;;;;15.40;7.15;;;0.80;99.90;;;;;;5038169;28;20483;-71
2023/03/01 09:01:09;;;;;;;12.02;6.57;;;0.90;99.90;;;;;;5022837;28;20096;-71
2023/03/01 09:03:38;;;;;;;11.75;6.40;;;1.00;99.90;;;;;;5024074;28;20420;-71
2023/03/01 09:06:04;;;;;;;11.82;6.30;;;1.10;99.90;;;;;;5012074;28;20050;-72
2023/03/01 09:08:30;;;;;;;12.05;6.03;;;1.20;99.90;;;;;;5034193;28;20241;-72
2023/03/01 09:10:56;;;;;;;12.98;6.65;;;1.40;99.90;;;;;;5017476;28;20045;-71
2023/03/01 09:13:24;;;;;;;10.50;5.82;;;1.50;99.90;;;;;;5033500;28;20041;-72
2023/03/01 09:15:51;;;;;;;8.75;5.43;;;1.50;99.90;;;;;;5017907;28;20054;-71
2023/03/01 09:18:16;;;;;;;13.18;6.82;;;1.60;99.90;;;;;;5020743;28;20044;-71
2023/03/01 09:20:42;;;;;;;12.57;7.13;;;1.80;99.90;;;;;;5018846;28;20045;-71
2023/03/01 09:23:08;;;;;;;12.30;6.00;;;1.80;99.90;;;;;;5020204;28;20045;-71
2023/03/01 09:25:34;;;;;;;16.13;6.28;;;1.90;99.90;;;;;;5045010;28;20045;-73
2023/03/01 09:28:00;;;;;;;11.38;5.57;;;2.20;99.90;;;;;;5037167;28;20159;-71
2023/03/01 09:30:26;;;;;;;12.35;5.95;;;2.30;99.90;;;;;;5050804;28;20466;-71
2023/03/01 09:32:52;;;;;;;11.35;5.75;;;2.40;99.90;;;;;;5020009;28;20049;-71
2023/03/01 09:35:19;;;;;;;12.25;5.35;;;2.50;99.90;;;;;;5034437;28;20430;-71
2023/03/01 09:37:45;;;;;;;9.15;5.35;;;2.70;99.90;;;;;;5052894;28;20587;-71
2023/03/01 09:40:22;;;;;;;9.75;5.90;;;2.80;99.90;;;;;;5065803;28;20073;-71
2023/03/01 09:43:29;;;;;;;9.50;5.20;;;3.00;99.90;;;;;;5027525;28;20069;-71
2023/03/01 09:45:55;;;;;;;11.45;6.25;;;3.10;99.90;;;;;;5034569;28;20049;-72
2023/03/01 09:48:23;;;;;;;10.18;4.90;;;3.30;99.90;;;;;;5021676;28;20045;-71
2023/03/01 09:50:49;;;;;;;8.77;5.22;;;3.50;99.90;;;;;;5026505;28;20666;-72
2023/03/01 09:53:20;;;;;;;12.90;5.78;;;3.60;99.90;;;;;;5018373;28;20055;-71
2023/03/01 09:55:56;;;;;;;12.65;5.80;;;3.80;99.90;;;;;;5033226;28;20059;-71
2023/03/01 09:58:36;;;;;;;10.13;4.70;;;3.90;97.40;;;;;;5012014;28;20038;-71
2023/03/01 10:01:31;;;;;;;10.68;4.85;;;4.00;95.90;;;;;;5030189;28;20090;-72
2023/03/01 10:04:25;;;;;;;8.38;4.68;;;4.20;94.90;;;;;;5027882;28;20369;-72
2023/03/01 10:07:06;;;;;;;8.68;4.95;;;4.30;92.60;;;;;;5032569;28;20055;-71
2023/03/01 10:09:36;;;;;;;8.40;4.70;;;4.40;91.00;;;;;;5040613;28;20041;-71
2023/03/01 10:12:02;;;;;;;14.52;5.15;;;4.60;90.40;;;;;;5039986;28;20658;-71
2023/03/01 10:14:35;;;;;;;10.45;4.45;;;4.70;87.50;;;;;;5036408;28;20060;-71
2023/03/01 10:17:41;;;;;;;11.38;4.88;;;4.90;90.50;;;;;;5050582;28;20040;-71
2023/03/01 10:20:19;;;;;;;11.98;4.78;;;5.10;86.80;;;;;;5040437;28;20100;-71
2023/03/01 10:22:50;;;;;;;9.63;4.00;;;5.20;85.40;;;;;;5035957;28;20104;-71
2023/03/01 10:25:32;;;;;;;9.98;4.40;;;5.40;84.60;;;;;;5029280;28;20044;-72
2023/03/01 10:28:13;;;;;;;8.32;4.63;;;5.60;81.20;;;;;;5016996;28;20045;-72
2023/03/01 10:30:41;;;;;;;8.52;4.22;;;5.80;82.50;;;;;;5037941;28;20056;-72
2023/03/01 10:33:23;;;;;;;10.68;4.70;;;5.80;77.80;;;;;;5039613;28;20052;-72
2023/03/01 10:35:49;;;;;;;8.25;4.60;;;5.80;76.90;;;;;;5032415;28;20462;-72
2023/03/01 10:38:15;;;;;;;9.07;4.45;;;5.90;74.00;;;;;;5020167;28;20053;-72
2023/03/01 10:40:58;;;;;;;11.15;4.80;;;6.10;76.50;;;;;;5030017;28;20065;-72
2023/03/01 10:43:25;;;;;;;8.77;4.38;;;6.40;73.90;;;;;;5036445;28;20107;-72
2023/03/01 10:45:51;;;;;;;8.57;4.05;;;6.40;73.30;;;;;;5047441;28;20389;-72
2023/03/01 10:48:28;;;;;;;8.65;4.72;;;6.60;71.10;;;;;;5038236;28;20053;-72
2023/03/01 10:50:59;;;;;;;8.90;4.40;;;6.60;68.60;;;;;;5042647;28;20056;-72
2023/03/01 10:53:42;;;;;;;9.93;4.78;;;6.90;69.30;;;;;;5036611;28;20547;-73
2023/03/01 10:56:13;;;;;;;7.15;4.13;;;7.10;68.20;;;;;;5019249;28;20056;-73
2023/03/01 10:58:40;;;;;;;7.13;4.18;;;7.30;66.20;;;;;;5011086;28;20040;-73
2023/03/01 11:01:16;;;;;;;9.77;4.13;;;7.60;66.40;;;;;;5041011;28;20457;-73
2023/03/01 11:03:42;;;;;;;6.03;3.63;;;7.80;63.90;;;;;;5030099;28;20454;-73
2023/03/01 11:06:10;;;;;;;10.35;3.80;;;7.90;63.30;;;;;;5025855;28;20057;-73
2023/03/01 11:08:44;;;;;;;7.15;3.97;;;8.10;60.60;;;;;;5038221;28;20046;-73
2023/03/01 11:11:15;;;;;;;7.95;3.88;;;8.40;62.70;;;;;;5022317;28;20496;-73
2023/03/01 11:13:55;;;;;;;9.60;4.25;;;9.10;58.10;;;;;;5039034;28;20053;-73
2023/03/01 11:16:41;;;;;;;8.35;4.00;;;10.40;53.30;;;;;;5042006;28;20053;-73
2023/03/01 11:19:09;;;;;;;5.68;3.30;;;13.30;46.90;;;;;;5037233;28;20038;-73
2023/03/01 11:21:53;;;;;;;9.82;4.20;;;15.60;40.70;;;;;;5042049;28;20037;-72
2023/03/01 11:24:19;;;;;;;6.90;3.75;;;16.70;37.00;;;;;;5045724;28;20041;-72
2023/03/01 11:26:47;;;;;;;8.15;3.85;;;17.00;36.20;;;;;;5041604;28;20666;-72
2023/03/01 11:29:25;;;;;;;;;;;17.40;35.90;;;;;;5025288;28;20460;-72
2023/03/01 11:31:51;;;;;;;9.00;4.40;;;16.50;37.10;;;;;;5044883;28;19982;-72
2023/03/01 11:34:23;;;;;;;7.30;4.20;;;16.30;37.00;;;;;;5041029;28;20777;-73
2023/03/01 11:36:58;;;;;;;7.10;4.10;;;17.00;35.20;;;;;;5037339;28;20045;-73
2023/03/01 11:39:43;;;;;;;8.50;4.70;;;17.30;35.30;;;;;;5019698;28;20278;-74
2023/03/01 11:42:19;;;;;;;6.55;3.88;;;17.70;35.90;;;;;;5054550;28;20108;-72
2023/03/01 11:44:47;;;;;;;6.82;3.70;;;18.30;34.90;;;;;;5041160;28;20041;-74
2023/03/01 11:47:25;;;;;;;5.53;3.38;;;18.10;34.60;;;;;;5013262;28;20454;-73
2023/03/01 11:50:07;;;;;;;7.68;3.92;;;18.00;35.20;;;;;;5028533;28;20076;-73
2023/03/01 11:52:54;;;;;;;7.88;3.60;;;17.60;33.70;;;;;;5043287;28;20033;-74
2023/03/01 11:55:20;;;;;;;5.47;3.65;;;16.40;35.50;;;;;;5036656;28;20050;-73
2023/03/01 11:57:49;;;;;;;8.15;3.97;;;14.90;37.70;;;;;;5017905;28;20382;-73
2023/03/01 12:00:33;;;;;;;7.60;3.53;;;14.30;40.30;;;;;;5039598;28;20042;-73
2023/03/01 12:03:11;;;;;;;7.85;4.00;;;13.40;40.70;;;;;;5032327;28;20127;-73
2023/03/01 12:05:46;;;;;;;6.00;3.83;;;13.10;41.60;;;;;;5046793;28;20043;-73
2023/03/01 12:08:20;;;;;;;6.70;4.00;;;13.60;42.10;;;;;;5046466;28;20503;-73
2023/03/01 12:11:04;;;;;;;7.72;3.88;;;15.30;39.60;;;;;;5030954;28;20076;-73
2023/03/01 12:13:47;;;;;;;5.88;4.07;;;16.50;36.30;;;;;;5024435;28;20046;-72
2023/03/01 12:16:45;;;;;;;7.10;3.95;;;15.80;36.80;;;;;;5008248;28;20048;-73
2023/03/01 12:20:01;;;;;;;7.22;3.60;;;15.90;38.10;;;;;;5029014;28;20045;-72
2023/03/01 12:22:38;;;;;;;7.85;3.70;;;15.30;37.60;;;;;;5025396;28;20135;-73
2023/03/01 12:25:26;;;;;;;7.60;3.67;;;15.20;39.90;;;;;;4986287;28;20086;-72
2023/03/01 12:28:04;;;;;;;7.18;4.20;;;15.80;36.60;;;;;;5024295;28;20428;-70
2023/03/01 12:30:54;;;;;;;6.47;3.97;;;15.80;36.70;;;;;;5041311;28;20128;-70
2023/03/01 12:33:35;;;;;;;6.00;3.65;;;16.90;36.50;;;;;;5030231;28;20063;-70
2023/03/01 12:36:07;;;;;;;5.97;3.47;;;17.70;34.40;;;;;;5032222;28;20179;-69
2023/03/01 12:38:45;;;;;;;6.53;3.67;;;18.70;34.10;;;;;;5041673;28;20048;-70
2023/03/01 12:41:36;;;;;;;7.88;4.20;;;19.70;32.60;;;;;;5028079;28;20045;-70
2023/03/01 12:44:21;;;;;;;7.28;3.40;;;19.30;32.50;;;;;;5037067;28;20068;-71
2023/03/01 12:46:56;;;;;;;5.65;3.28;;;18.30;33.30;;;;;;5025870;28;20049;-70
2023/03/01 12:49:40;;;;;;;6.03;3.60;;;17.20;35.10;;;;;;5030564;28;20412;-70
2023/03/01 12:52:28;;;;;;;7.68;3.67;;;18.10;34.50;;;;;;5019309;28;20073;-70
2023/03/01 12:54:54;;;;;;;5.65;3.80;;;20.00;33.70;;;;;;5045145;28;20079;-70
2023/03/01 12:57:26;;;;;;;6.85;4.22;;;19.70;31.80;;;;;;5037396;28;20386;-70